createdAt,value
2022-11-16T00:01:10.591Z,10.38
2022-11-16T00:03:43.971Z,10.39
2022-11-16T00:06:16.329Z,10.27
2022-11-16T00:09:09.422Z,10.15
2022-11-16T00:11:40.683Z,10.07
2022-11-16T00:14:11.545Z,10.00
2022-11-16T00:16:42.278Z,9.98
2022-11-16T00:19:16.198Z,9.97
2022-11-16T00:21:46.871Z,9.87
2022-11-16T00:24:18.790Z,9.79
2022-11-16T00:26:50.128Z,9.73
2022-11-16T00:29:24.117Z,9.62
2022-11-16T00:31:55.590Z,9.59
2022-11-16T00:34:28.460Z,9.57
2022-11-16T00:36:58.758Z,9.53
2022-11-16T00:39:29.200Z,9.47
2022-11-16T00:41:59.412Z,9.42
2022-11-16T00:44:29.626Z,9.36
2022-11-16T00:46:59.890Z,9.31
2022-11-16T00:49:32.765Z,9.30
2022-11-16T00:52:02.970Z,9.34
2022-11-16T00:54:33.314Z,9.33
2022-11-16T00:57:03.524Z,9.36
2022-11-16T00:59:34.194Z,9.37
2022-11-16T01:02:04.571Z,9.41
2022-11-16T01:04:37.508Z,9.41
2022-11-16T01:07:09.248Z,9.41
2022-11-16T01:09:39.801Z,9.43
2022-11-16T01:12:13.422Z,9.50
2022-11-16T01:14:46.625Z,9.50
2022-11-16T01:17:17.991Z,9.49
2022-11-16T01:19:50.971Z,9.44
2022-11-16T01:22:21.302Z,9.52
2022-11-16T01:24:51.555Z,9.54
2022-11-16T01:27:21.785Z,9.51
2022-11-16T01:29:52.120Z,9.45
2022-11-16T01:32:22.499Z,9.43
2022-11-16T01:34:55.594Z,9.45
2022-11-16T01:37:32.886Z,9.49
2022-11-16T01:40:03.846Z,9.51
2022-11-16T01:42:35.027Z,9.51
2022-11-16T01:45:19.662Z,9.62
2022-11-16T01:47:50.116Z,9.69
2022-11-16T01:50:26.493Z,9.70
2022-11-16T01:53:00.898Z,9.58
2022-11-16T01:55:38.946Z,9.56
2022-11-16T01:58:32.258Z,9.55
2022-11-16T02:01:13.334Z,9.64
2022-11-16T02:03:57.429Z,9.48
2022-11-16T02:07:02.158Z,9.43
2022-11-16T02:10:04.271Z,9.35
2022-11-16T02:13:04.351Z,9.21
2022-11-16T02:15:49.051Z,9.12
2022-11-16T02:18:38.974Z,9.12
2022-11-16T02:21:35.859Z,9.14
2022-11-16T02:24:46.154Z,9.06
2022-11-16T02:28:05.378Z,9.00
2022-11-16T02:30:42.866Z,8.97
2022-11-16T02:33:16.669Z,8.96
2022-11-16T02:35:51.232Z,8.90
2022-11-16T02:38:27.518Z,8.90
2022-11-16T02:41:03.702Z,8.89
2022-11-16T02:43:41.487Z,8.81
2022-11-16T02:46:22.480Z,8.76
2022-11-16T02:48:57.418Z,8.67
2022-11-16T02:51:31.519Z,8.62
2022-11-16T02:54:13.023Z,8.58
2022-11-16T02:56:53.657Z,8.49
2022-11-16T02:59:32.222Z,8.46
2022-11-16T03:02:20.896Z,8.37
2022-11-16T03:04:56.475Z,8.33
2022-11-16T03:07:33.411Z,8.38
2022-11-16T03:10:04.485Z,8.38
2022-11-16T03:12:36.627Z,8.33
2022-11-16T03:15:13.002Z,8.38
2022-11-16T03:17:49.335Z,8.50
2022-11-16T03:20:24.923Z,8.54
2022-11-16T03:22:59.744Z,8.54
2022-11-16T03:25:36.737Z,8.53
2022-11-16T03:28:15.408Z,8.42
2022-11-16T03:30:52.595Z,8.26
2022-11-16T03:33:30.777Z,8.12
2022-11-16T03:36:08.574Z,8.17
2022-11-16T03:38:43.059Z,8.16
2022-11-16T03:41:16.082Z,8.06
2022-11-16T03:43:48.283Z,8.06
2022-11-16T03:46:20.653Z,8.06
2022-11-16T03:49:00.467Z,8.00
2022-11-16T03:51:34.902Z,7.93
2022-11-16T03:54:05.712Z,7.91
2022-11-16T03:56:38.869Z,7.91
2022-11-16T03:59:09.236Z,7.95
2022-11-16T04:01:44.554Z,8.00
2022-11-16T04:04:31.026Z,7.95
2022-11-16T04:07:13.860Z,7.98
2022-11-16T04:09:56.607Z,7.97
2022-11-16T04:12:39.297Z,8.00
2022-11-16T04:15:25.494Z,8.07
2022-11-16T04:18:08.176Z,8.07
2022-11-16T04:20:54.451Z,7.94
2022-11-16T04:23:37.134Z,8.01
2022-11-16T04:26:10.643Z,8.05
2022-11-16T04:28:40.131Z,8.11
2022-11-16T04:31:22.885Z,8.19
2022-11-16T04:34:13.417Z,8.17
2022-11-16T04:37:03.944Z,8.21
2022-11-16T04:39:35.145Z,8.28
2022-11-16T04:42:19.879Z,8.27
2022-11-16T04:45:05.712Z,8.34
2022-11-16T04:47:42.287Z,8.47
2022-11-16T04:50:13.235Z,8.59
2022-11-16T04:52:47.615Z,8.60
2022-11-16T04:55:19.294Z,8.61
2022-11-16T04:57:51.462Z,8.55
2022-11-16T05:00:23.014Z,8.59
2022-11-16T05:02:59.739Z,8.59
2022-11-16T05:05:32.289Z,8.66
2022-11-16T05:08:06.978Z,8.72
2022-11-16T05:10:39.433Z,8.80
2022-11-16T05:13:10.823Z,8.75
2022-11-16T05:15:41.570Z,8.74
2022-11-16T05:18:12.273Z,8.71
2022-11-16T05:20:55.043Z,8.64
2022-11-16T05:23:40.616Z,8.55
2022-11-16T05:26:15.346Z,8.45
2022-11-16T05:28:45.803Z,8.41
2022-11-16T05:31:17.143Z,8.36
2022-11-16T05:33:48.063Z,8.31
2022-11-16T05:36:19.455Z,8.29
2022-11-16T05:38:56.245Z,8.29
2022-11-16T05:41:29.306Z,8.34
2022-11-16T05:44:00.460Z,8.30
2022-11-16T05:46:30.938Z,8.27
2022-11-16T05:49:03.600Z,8.30
2022-11-16T05:51:34.144Z,8.38
2022-11-16T05:54:08.065Z,8.36
2022-11-16T05:56:38.821Z,8.28
2022-11-16T05:59:15.198Z,8.30
2022-11-16T06:01:47.604Z,8.36
2022-11-16T06:04:24.174Z,8.29
2022-11-16T06:06:54.823Z,8.31
2022-11-16T06:09:32.158Z,8.34
2022-11-16T06:12:09.621Z,8.29
2022-11-16T06:14:40.256Z,8.32
2022-11-16T06:17:14.624Z,8.44
2022-11-16T06:19:46.092Z,8.65
2022-11-16T06:22:16.582Z,8.80
2022-11-16T06:24:50.250Z,8.76
2022-11-16T06:27:21.156Z,8.64
2022-11-16T06:29:51.663Z,8.49
2022-11-16T06:32:22.171Z,8.43
2022-11-16T06:34:52.648Z,8.35
2022-11-16T06:37:23.134Z,8.41
2022-11-16T06:39:56.352Z,8.49
2022-11-16T06:42:27.091Z,8.58
2022-11-16T06:44:58.621Z,8.72
2022-11-16T06:47:33.569Z,8.75
2022-11-16T06:50:05.058Z,8.77
2022-11-16T06:52:37.263Z,8.81
2022-11-16T06:55:12.025Z,8.93
2022-11-16T06:57:42.737Z,9.01
2022-11-16T07:00:16.079Z,9.11
2022-11-16T07:02:47.068Z,9.15
2022-11-16T07:05:21.083Z,9.13
2022-11-16T07:07:51.600Z,9.22
2022-11-16T07:10:25.019Z,9.16
2022-11-16T07:12:56.471Z,9.23
2022-11-16T07:15:27.293Z,9.26
2022-11-16T07:17:58.089Z,9.26
2022-11-16T07:20:28.565Z,9.24
2022-11-16T07:22:58.993Z,9.27
2022-11-16T07:25:32.574Z,9.27
2022-11-16T07:28:04.834Z,9.32
2022-11-16T07:30:37.039Z,9.36
2022-11-16T07:33:11.209Z,9.42
2022-11-16T07:36:05.266Z,9.50
2022-11-16T07:38:36.613Z,9.58
2022-11-16T07:41:13.143Z,9.68
2022-11-16T07:43:53.417Z,9.78
2022-11-16T07:46:45.954Z,9.85
2022-11-16T07:49:20.949Z,9.81
2022-11-16T07:51:56.368Z,9.89
2022-11-16T07:54:49.487Z,10.01
2022-11-16T07:57:22.807Z,10.08
2022-11-16T07:59:53.531Z,10.13
2022-11-16T08:02:24.292Z,10.10
2022-11-16T08:04:55.184Z,10.18
2022-11-16T08:07:29.553Z,10.27
2022-11-16T08:10:00.426Z,10.34
2022-11-16T08:12:34.365Z,10.36
2022-11-16T08:15:04.948Z,10.40
2022-11-16T08:17:36.044Z,10.39
2022-11-16T08:20:11.291Z,10.54
2022-11-16T08:22:42.571Z,10.55
2022-11-16T08:25:13.761Z,10.44
2022-11-16T08:27:49.021Z,10.46
2022-11-16T08:30:22.556Z,10.41
2022-11-16T08:32:52.712Z,10.29
2022-11-16T08:35:23.572Z,10.26
2022-11-16T08:37:54.007Z,10.29
2022-11-16T08:40:24.497Z,10.31
2022-11-16T08:42:58.148Z,10.31
2022-11-16T08:45:28.597Z,10.30
2022-11-16T08:48:03.946Z,10.27
2022-11-16T08:51:02.276Z,10.29
2022-11-16T08:53:27.569Z,10.35
2022-11-16T08:55:58.259Z,10.40
2022-11-16T08:58:31.773Z,10.31
2022-11-16T09:01:02.544Z,10.35
2022-11-16T09:03:33.012Z,10.30
2022-11-16T09:06:03.475Z,10.30
2022-11-16T09:08:34.222Z,10.22
2022-11-16T09:11:07.606Z,10.18
2022-11-16T09:13:41.013Z,10.18
2022-11-16T09:16:12.100Z,10.23
2022-11-16T09:18:42.203Z,10.20
2022-11-16T09:21:13.018Z,10.22
2022-11-16T09:23:43.482Z,10.20
2022-11-16T09:26:13.966Z,10.21
2022-11-16T09:28:47.025Z,10.20
2022-11-16T09:31:23.006Z,10.25
2022-11-16T09:33:53.924Z,10.29
2022-11-16T09:36:24.356Z,10.31
2022-11-16T09:39:29.547Z,10.41
2022-11-16T09:42:04.687Z,10.45
2022-11-16T09:45:04.655Z,10.45
2022-11-16T09:47:49.291Z,10.36
2022-11-16T09:50:44.390Z,10.31
2022-11-16T09:53:30.768Z,10.32
2022-11-16T09:56:07.149Z,10.39
2022-11-16T09:58:44.570Z,10.41
2022-11-16T10:01:29.095Z,10.37
2022-11-16T10:04:06.673Z,10.39
2022-11-16T10:06:47.946Z,10.38
2022-11-16T10:09:18.581Z,10.40
2022-11-16T10:12:17.469Z,10.45
2022-11-16T10:15:13.016Z,10.47
2022-11-16T10:18:09.007Z,10.49
2022-11-16T10:20:56.833Z,10.54
2022-11-16T10:23:41.643Z,10.55
2022-11-16T10:26:25.438Z,10.59
2022-11-16T10:29:24.236Z,10.67
2022-11-16T10:32:06.754Z,10.72
2022-11-16T10:34:49.161Z,10.75
2022-11-16T10:37:19.543Z,10.88
2022-11-16T10:39:53.360Z,10.90
2022-11-16T10:42:33.687Z,10.88
2022-11-16T10:45:16.537Z,10.89
2022-11-16T10:47:55.400Z,10.98
2022-11-16T10:50:43.544Z,11.11
2022-11-16T10:53:17.605Z,11.25
2022-11-16T10:55:48.029Z,11.40
2022-11-16T10:58:18.537Z,11.46
2022-11-16T11:00:52.882Z,11.56
2022-11-16T11:03:34.853Z,11.62
2022-11-16T11:06:08.971Z,11.68
2022-11-16T11:08:39.398Z,11.71
2022-11-16T11:11:22.195Z,11.78
2022-11-16T11:14:07.604Z,11.79
2022-11-16T11:16:38.201Z,11.85
2022-11-16T11:19:26.483Z,11.88
2022-11-16T11:22:03.933Z,11.90
2022-11-16T11:24:49.558Z,11.94
2022-11-16T11:27:27.394Z,11.97
2022-11-16T11:30:01.493Z,12.01
2022-11-16T11:32:38.250Z,12.03
2022-11-16T11:35:16.843Z,12.03
2022-11-16T11:38:02.163Z,12.07
2022-11-16T11:40:36.340Z,12.08
2022-11-16T11:43:09.035Z,12.10
2022-11-16T11:45:48.662Z,12.15
2022-11-16T11:48:35.748Z,12.18
2022-11-16T11:51:15.066Z,12.16
2022-11-16T11:53:58.591Z,12.14
2022-11-16T11:56:31.884Z,12.13
2022-11-16T11:59:02.664Z,12.15
2022-11-16T12:02:06.548Z,12.17
2022-11-16T12:05:27.286Z,12.23
2022-11-16T12:08:20.445Z,12.26
2022-11-16T12:10:58.958Z,12.32
2022-11-16T12:13:59.595Z,12.24
2022-11-16T12:16:38.501Z,12.18
2022-11-16T12:19:37.140Z,12.12
2022-11-16T12:22:23.955Z,12.10
2022-11-16T12:25:12.849Z,12.11
2022-11-16T12:27:58.359Z,12.07
2022-11-16T12:30:29.068Z,12.08
2022-11-16T12:33:17.601Z,12.07
2022-11-16T12:35:57.178Z,12.00
2022-11-16T12:38:45.923Z,11.94
2022-11-16T12:41:49.838Z,11.87
2022-11-16T12:44:33.752Z,11.76
2022-11-16T12:47:18.061Z,11.76
2022-11-16T12:50:16.060Z,11.69
2022-11-16T12:53:06.540Z,11.61
2022-11-16T12:55:47.392Z,11.53
2022-11-16T12:58:28.819Z,11.49
2022-11-16T13:01:14.822Z,11.46
2022-11-16T13:03:52.924Z,11.44
2022-11-16T13:06:30.064Z,11.46
2022-11-16T13:09:07.155Z,11.44
2022-11-16T13:11:42.779Z,11.39
2022-11-16T13:14:20.252Z,11.39
2022-11-16T13:16:54.559Z,11.34
2022-11-16T13:19:25.204Z,11.40
2022-11-16T13:22:03.738Z,11.41
2022-11-16T13:24:50.968Z,11.43
2022-11-16T13:27:33.492Z,11.42
2022-11-16T13:30:15.747Z,11.40
2022-11-16T13:33:07.672Z,11.37
2022-11-16T13:35:41.006Z,11.37
2022-11-16T13:38:15.366Z,11.36
2022-11-16T13:40:45.801Z,11.33
2022-11-16T13:43:22.811Z,11.38
2022-11-16T13:46:00.787Z,11.38
2022-11-16T13:48:38.647Z,11.34
2022-11-16T13:51:19.091Z,11.34
2022-11-16T13:56:52.181Z,11.30
2022-11-16T13:59:29.107Z,11.28
2022-11-16T14:02:02.285Z,11.26
2022-11-16T14:05:03.270Z,11.19
2022-11-16T14:07:44.948Z,11.16
2022-11-16T14:10:50.599Z,11.13
2022-11-16T14:13:45.772Z,11.01
2022-11-16T14:16:57.686Z,10.94
2022-11-16T14:19:58.408Z,10.84
2022-11-16T14:22:53.474Z,10.81
2022-11-16T14:25:35.583Z,10.80
2022-11-16T14:28:26.273Z,10.76
2022-11-16T14:31:12.768Z,10.75
2022-11-16T14:33:43.320Z,10.78
2022-11-16T14:36:14.751Z,10.81
2022-11-16T14:38:48.368Z,10.76
2022-11-16T14:41:25.298Z,10.70
2022-11-16T14:43:58.737Z,10.57
2022-11-16T14:46:33.568Z,10.46
2022-11-16T14:49:05.202Z,10.34
2022-11-16T14:51:39.775Z,10.42
2022-11-16T14:54:21.921Z,10.31
2022-11-16T14:57:00.570Z,10.35
2022-11-16T14:59:32.323Z,10.38
2022-11-16T15:02:15.728Z,10.37
2022-11-16T15:04:47.584Z,10.37
2022-11-16T15:07:19.279Z,10.40
2022-11-16T15:09:55.672Z,10.44
2022-11-16T15:12:51.399Z,10.42
2022-11-16T15:15:26.834Z,10.48
2022-11-16T15:18:11.257Z,10.47
2022-11-16T15:20:53.287Z,10.46
2022-11-16T15:23:30.865Z,10.47
2022-11-16T15:26:04.845Z,10.51
2022-11-16T15:28:35.588Z,10.43
2022-11-16T15:31:09.620Z,10.43
2022-11-16T15:33:44.261Z,10.36
2022-11-16T15:36:31.813Z,10.37
2022-11-16T15:39:03.993Z,10.40
2022-11-16T15:41:37.615Z,10.42
2022-11-16T15:44:15.072Z,10.44
2022-11-16T15:46:47.769Z,10.46
2022-11-16T15:49:31.881Z,10.48
2022-11-16T15:52:03.680Z,10.50
2022-11-16T15:54:56.458Z,10.46
2022-11-16T15:57:29.692Z,10.43
2022-11-16T16:00:00.920Z,10.41
2022-11-16T16:02:34.621Z,10.40
2022-11-16T16:05:04.988Z,10.39
2022-11-16T16:07:40.015Z,10.42
2022-11-16T16:10:26.549Z,10.40
2022-11-16T16:13:02.840Z,10.36
2022-11-16T16:15:36.908Z,10.40
2022-11-16T16:18:38.930Z,10.43
2022-11-16T16:21:09.606Z,10.45
2022-11-16T16:23:48.591Z,10.49
2022-11-16T16:26:19.837Z,10.48
2022-11-16T16:28:53.679Z,10.52
2022-11-16T16:31:24.068Z,10.51
2022-11-16T16:33:55.715Z,10.49
2022-11-16T16:36:26.102Z,10.46
2022-11-16T16:38:57.299Z,10.49
2022-11-16T16:41:27.614Z,10.49
2022-11-16T16:44:00.674Z,10.46
2022-11-16T16:46:31.148Z,10.46
2022-11-16T16:49:01.611Z,10.46
2022-11-16T16:51:32.201Z,10.45
2022-11-16T16:54:02.926Z,10.47
2022-11-16T16:56:33.483Z,10.47
2022-11-16T16:59:06.597Z,10.50
2022-11-16T17:01:37.054Z,10.51
2022-11-16T17:04:07.648Z,10.53
2022-11-16T17:06:42.388Z,10.56
2022-11-16T17:09:16.858Z,10.53
2022-11-16T17:11:47.539Z,10.56
2022-11-16T17:14:24.394Z,10.59
2022-11-16T17:16:54.950Z,10.61
2022-11-16T17:19:25.417Z,10.62
2022-11-16T17:21:56.109Z,10.64
2022-11-16T17:24:26.527Z,10.61
2022-11-16T17:26:57.031Z,10.62
2022-11-16T17:29:30.283Z,10.62
2022-11-16T17:32:00.850Z,10.64
2022-11-16T17:34:31.336Z,10.62
2022-11-16T17:37:01.769Z,10.62
2022-11-16T17:39:32.189Z,10.62
2022-11-16T17:42:02.715Z,10.61
2022-11-16T17:44:35.793Z,10.61
2022-11-16T17:47:07.557Z,10.65
2022-11-16T17:49:37.874Z,10.64
2022-11-16T17:52:08.342Z,10.65
2022-11-16T17:54:38.812Z,10.67
2022-11-16T17:57:09.275Z,10.66
2022-11-16T17:59:42.341Z,10.63
2022-11-16T18:02:14.279Z,10.66
2022-11-16T18:04:50.764Z,10.66
2022-11-16T18:07:21.708Z,10.67
2022-11-16T18:09:52.272Z,10.62
2022-11-16T18:12:22.859Z,10.66
2022-11-16T18:15:26.298Z,10.66
2022-11-16T18:17:47.780Z,10.64
2022-11-16T18:20:18.662Z,10.58
2022-11-16T18:22:49.197Z,10.57
2022-11-16T18:25:19.827Z,10.55
2022-11-16T18:27:55.250Z,10.58
2022-11-16T18:30:29.134Z,10.57
2022-11-16T18:32:59.859Z,10.57
2022-11-16T18:35:30.328Z,10.60
2022-11-16T18:38:02.197Z,10.60
2022-11-16T18:40:32.608Z,10.61
2022-11-16T18:43:03.073Z,10.60
2022-11-16T18:45:36.211Z,10.64
2022-11-16T18:48:07.069Z,10.61
2022-11-16T18:50:37.588Z,10.61
2022-11-16T18:53:08.044Z,10.59
2022-11-16T18:55:38.680Z,10.58
2022-11-16T18:58:22.898Z,10.58
2022-11-16T19:01:05.274Z,10.58
2022-11-16T19:03:36.646Z,10.60
2022-11-16T19:06:10.443Z,10.59
2022-11-16T19:08:43.647Z,10.57
2022-11-16T19:11:15.980Z,10.59
2022-11-16T19:13:47.378Z,10.58
2022-11-16T19:16:20.431Z,10.61
2022-11-16T19:18:50.843Z,10.58
2022-11-16T19:21:22.062Z,10.60
2022-11-16T19:23:54.869Z,10.60
2022-11-16T19:26:27.970Z,10.57
2022-11-16T19:28:58.781Z,10.60
2022-11-16T19:31:34.358Z,10.57
2022-11-16T19:34:07.466Z,10.58
2022-11-16T19:36:40.043Z,10.55
2022-11-16T19:39:10.732Z,10.57
2022-11-16T19:41:41.501Z,10.56
2022-11-16T19:44:12.068Z,10.58
2022-11-16T19:46:45.310Z,10.59
2022-11-16T19:49:20.189Z,10.56
2022-11-16T19:51:53.064Z,10.54
2022-11-16T19:54:23.491Z,10.55
2022-11-16T19:56:55.333Z,10.53
2022-11-16T19:59:25.843Z,10.51
2022-11-16T20:01:59.017Z,10.54
2022-11-16T20:04:33.635Z,10.54
2022-11-16T20:07:05.706Z,10.56
2022-11-16T20:09:36.565Z,10.57
2022-11-16T20:12:07.329Z,10.56
2022-11-16T20:14:37.887Z,10.52
2022-11-16T20:17:11.745Z,10.52
2022-11-16T20:19:42.081Z,10.54
2022-11-16T20:22:12.595Z,10.54
2022-11-16T20:24:43.079Z,10.52
2022-11-16T20:27:13.759Z,10.51
2022-11-16T20:29:44.183Z,10.50
2022-11-16T20:32:17.324Z,10.50
2022-11-16T20:34:47.659Z,10.52
2022-11-16T20:37:18.178Z,10.55
2022-11-16T20:39:57.215Z,10.55
2022-11-16T20:42:28.388Z,10.53
2022-11-16T20:44:58.750Z,10.53
2022-11-16T20:47:31.849Z,10.50
2022-11-16T20:50:03.290Z,10.52
2022-11-16T20:52:38.174Z,10.50
2022-11-16T20:55:13.007Z,10.50
2022-11-16T20:57:43.386Z,10.49
2022-11-16T21:00:16.462Z,10.47
2022-11-16T21:02:49.710Z,10.47
2022-11-16T21:05:20.129Z,10.46
2022-11-16T21:07:50.589Z,10.44
2022-11-16T21:10:21.285Z,10.43
2022-11-16T21:13:04.892Z,10.44
2022-11-16T21:15:35.370Z,10.36
2022-11-16T21:18:08.719Z,10.31
2022-11-16T21:20:39.104Z,10.25
2022-11-16T21:23:09.560Z,10.25
2022-11-16T21:25:40.064Z,10.24
2022-11-16T21:28:10.511Z,10.26
2022-11-16T21:30:41.028Z,10.23
2022-11-16T21:33:14.108Z,10.26
2022-11-16T21:35:44.499Z,10.23
2022-11-16T21:38:14.961Z,10.21
2022-11-16T21:40:46.661Z,10.22
2022-11-16T21:43:17.387Z,10.26
2022-11-16T21:45:49.595Z,10.26
2022-11-16T21:48:22.771Z,10.25
2022-11-16T21:51:03.309Z,10.24
2022-11-16T21:53:34.492Z,10.22
2022-11-16T21:56:06.964Z,10.23
2022-11-16T21:58:37.327Z,10.21
2022-11-16T22:01:08.036Z,10.20
2022-11-16T22:03:41.209Z,10.18
2022-11-16T22:06:29.078Z,10.18
2022-11-16T22:08:59.707Z,10.15
2022-11-16T22:11:30.299Z,10.15
2022-11-16T22:14:00.745Z,10.12
2022-11-16T22:16:31.208Z,10.12
2022-11-16T22:19:04.402Z,10.11
2022-11-16T22:21:34.774Z,10.12
2022-11-16T22:24:05.323Z,10.12
2022-11-16T22:26:35.814Z,10.12
2022-11-16T22:29:06.208Z,10.08
2022-11-16T22:31:37.053Z,10.07
2022-11-16T22:34:10.208Z,10.03
2022-11-16T22:36:40.560Z,10.02
2022-11-16T22:39:10.999Z,10.01
2022-11-16T22:41:41.581Z,9.97
2022-11-16T22:44:12.174Z,9.99
2022-11-16T22:46:42.868Z,9.95
2022-11-16T22:49:15.945Z,9.91
2022-11-16T22:51:46.377Z,9.93
2022-11-16T22:54:17.015Z,9.93
2022-11-16T22:56:47.779Z,9.91
2022-11-16T22:59:18.207Z,9.92
2022-11-16T23:01:48.641Z,9.93
2022-11-16T23:04:21.746Z,9.92
2022-11-16T23:06:52.275Z,9.91
2022-11-16T23:09:22.754Z,9.88
2022-11-16T23:12:05.546Z,9.84
2022-11-16T23:14:48.309Z,9.87
2022-11-16T23:17:18.745Z,9.86
2022-11-16T23:20:04.110Z,9.82
2022-11-16T23:22:46.808Z,9.84
2022-11-16T23:25:29.539Z,9.84
2022-11-16T23:28:06.038Z,9.83
2022-11-16T23:30:38.063Z,9.83
2022-11-16T23:33:08.617Z,9.82
2022-11-16T23:35:41.725Z,9.82
2022-11-16T23:38:12.361Z,9.80
2022-11-16T23:40:43.637Z,9.79
2022-11-16T23:43:38.977Z,9.78
2022-11-16T23:46:09.723Z,9.78
2022-11-16T23:48:40.172Z,9.74
2022-11-16T23:51:13.240Z,9.73
2022-11-16T23:53:43.848Z,9.72
2022-11-16T23:56:14.635Z,9.72
2022-11-16T23:58:45.095Z,9.66
